Time;durP1;ratioP1;P1;durP2;ratioP2;P2;SDS_P1;SDS_P2;PMS_P1;PMS_P2;Temp;Humidity;BMP_temperature;BMP_pressure;BME280_temperature;BME280_humidity;BME280_pressure;Samples;Min_cycle;Max_cycle;Signal;HPM_P1;HPM_P2
2022/03/23 00:01:59;;;;;;;;;65.75;50.50;;;;;12.61;44.73;102325.75;5050958;28;45506;-74
2022/03/23 00:04:24;;;;;;;;;69.25;50.25;;;;;12.53;44.68;102321.16;5051651;28;45414;-79
2022/03/23 00:06:50;;;;;;;;;71.00;55.00;;;;;12.52;44.73;102333.19;5048709;28;45771;-74
2022/03/23 00:09:15;;;;;;;;;66.00;49.75;;;;;12.45;45.03;102323.94;5050685;28;45395;-74
2022/03/23 00:11:56;;;;;;;;;66.25;51.25;;;;;12.38;45.30;102328.47;5051914;28;45568;-78
2022/03/23 00:14:21;;;;;;;;;67.25;50.25;;;;;12.27;45.20;102316.84;5072046;27;45785;-78
2022/03/23 00:16:47;;;;;;;;;59.75;47.75;;;;;12.30;45.11;102338.47;5051973;28;45947;-77
2022/03/23 00:19:13;;;;;;;;;68.25;51.00;;;;;12.28;45.54;102334.22;5054133;28;45904;-78
2022/03/23 00:21:38;;;;;;;;;69.00;51.00;;;;;12.22;45.28;102330.28;5052759;27;45839;-73
2022/03/23 00:24:05;;;;;;;;;67.25;51.00;;;;;12.17;45.60;102322.56;5069504;28;45877;-74
2022/03/23 00:26:34;;;;;;;;;64.50;50.50;;;;;12.17;45.90;102336.34;5054095;28;45787;-73
2022/03/23 00:28:59;;;;;;;;;70.00;52.75;;;;;12.14;45.65;102336.69;5067499;27;45916;-78
2022/03/23 00:31:25;;;;;;;;;65.75;49.50;;;;;12.12;45.68;102344.25;5075387;27;45461;-77
2022/03/23 00:33:51;;;;;;;;;66.25;51.00;;;;;12.08;46.06;102331.91;5071930;27;45471;-73
2022/03/23 00:36:18;;;;;;;;;66.75;51.00;;;;;12.06;46.02;102335.88;5054597;28;45454;-78
2022/03/23 00:38:45;;;;;;;;;68.25;51.00;;;;;12.06;45.89;102335.88;5055784;28;45853;-78
2022/03/23 00:41:11;;;;;;;;;65.00;50.75;;;;;12.06;45.82;102338.63;5056823;28;45708;-79
2022/03/23 00:43:37;;;;;;;;;64.25;47.00;;;;;12.06;45.61;102338.63;5054124;28;45530;-73
2022/03/23 00:46:05;;;;;;;;;64.50;50.00;;;;;12.03;46.07;102341.75;5054327;28;45585;-72
2022/03/23 00:48:31;;;;;;;;;65.75;50.50;;;;;12.03;45.86;102339.84;5053876;28;45843;-75
2022/03/23 00:50:59;;;;;;;;;60.25;47.50;;;;;11.99;46.25;102343.97;5069147;27;47722;-77
2022/03/23 00:53:24;;;;;;;;;65.50;50.25;;;;;11.96;46.08;102338.81;5054165;28;45488;-78
2022/03/23 00:55:52;;;;;;;;;66.25;50.50;;;;;11.93;46.18;102344.69;5056533;28;45754;-73
2022/03/23 00:58:18;;;;;;;;;67.25;49.25;;;;;11.89;46.85;102343.31;5054215;28;45458;-76
2022/03/23 01:00:45;;;;;;;;;66.00;52.00;;;;;11.80;46.75;102339.75;5052164;28;47159;-78
2022/03/23 01:03:11;;;;;;;;;70.00;51.75;;;;;11.76;46.85;102341.13;5055071;28;45856;-73
2022/03/23 01:05:36;;;;;;;;;71.00;53.50;;;;;11.73;46.75;102336.84;5051180;28;45807;-72
2022/03/23 01:08:02;;;;;;;;;67.25;51.25;;;;;11.63;46.95;102331.56;5065946;27;45492;-71
2022/03/23 01:10:29;;;;;;;;;69.00;50.00;;;;;11.64;46.99;102346.16;5053147;28;45810;-77
2022/03/23 01:12:55;;;;;;;;;64.50;47.75;;;;;11.58;47.28;102344.94;5053059;28;45951;-73
2022/03/23 01:15:21;;;;;;;;;64.75;49.50;;;;;11.54;47.26;102346.38;5053724;28;45369;-72
2022/03/23 01:17:46;;;;;;;;;65.50;49.00;;;;;11.53;47.46;102341.03;5053919;28;45706;-73
2022/03/23 01:20:14;;;;;;;;;63.50;49.75;;;;;11.49;47.49;102335.88;5055298;28;45785;-78
2022/03/23 01:22:41;;;;;;;;;68.50;52.25;;;;;11.48;47.36;102331.44;5051313;28;45864;-71
2022/03/23 01:25:08;;;;;;;;;68.50;51.50;;;;;11.46;47.37;102338.97;5065898;28;45868;-72
2022/03/23 01:27:39;;;;;;;;;66.25;49.50;;;;;11.40;47.61;102327.84;5053112;28;46108;-73
2022/03/23 01:30:06;;;;;;;;;58.75;46.00;;;;;11.36;47.87;102326.47;5089289;27;48003;-78
2022/03/23 01:32:33;;;;;;;;;66.75;49.50;;;;;11.37;47.69;102330.94;5074002;27;45503;-79
2022/03/23 01:34:58;;;;;;;;;66.00;51.50;;;;;11.34;48.30;102337.63;5059648;28;45767;-70
2022/03/23 01:37:23;;;;;;;;;71.50;49.75;;;;;11.28;47.76;102333.69;5053327;28;45405;-77
2022/03/23 01:39:49;;;;;;;;;67.50;49.75;;;;;11.26;47.82;102329.44;5053608;28;46937;-77
2022/03/23 01:42:14;;;;;;;;;65.75;49.25;;;;;11.23;48.33;102340.75;5052752;28;45448;-72
2022/03/23 01:44:41;;;;;;;;;66.00;51.50;;;;;11.17;48.04;102330.44;5054476;28;46211;-74
2022/03/23 01:47:09;;;;;;;;;64.25;48.75;;;;;11.13;48.06;102332.69;5053258;28;45460;-78
2022/03/23 01:49:40;;;;;;;;;65.50;51.00;;;;;11.09;48.49;102334.94;5050608;28;47356;-72
2022/03/23 01:52:08;;;;;;;;;69.75;50.75;;;;;11.04;48.24;102331.00;5049941;28;45745;-74
2022/03/23 01:54:35;;;;;;;;;64.75;49.00;;;;;10.94;48.43;102317.44;5052731;28;45556;-72
2022/03/23 01:57:03;;;;;;;;;66.00;49.50;;;;;10.99;48.40;102323.28;5052932;28;45420;-78
2022/03/23 01:59:28;;;;;;;;;64.00;48.25;;;;;10.97;48.82;102322.56;5052666;28;46588;-80
2022/03/23 02:01:54;;;;;;;;;68.25;48.75;;;;;10.93;48.58;102326.72;5052737;28;45717;-78
2022/03/23 02:04:21;;;;;;;;;65.75;50.00;;;;;10.92;48.95;102325.00;5046907;28;45703;-78
2022/03/23 02:06:50;;;;;;;;;64.00;50.00;;;;;10.88;49.11;102327.25;5052176;28;46079;-72
2022/03/23 02:09:17;;;;;;;;;62.75;47.00;;;;;10.85;49.20;102324.81;5068356;28;45526;-77
2022/03/23 02:11:44;;;;;;;;;66.25;46.75;;;;;10.82;49.11;102321.56;5053717;28;45499;-78
2022/03/23 02:14:10;;;;;;;;;68.00;50.50;;;;;10.78;48.83;102323.81;5051593;28;45782;-77
2022/03/23 02:16:53;;;;;;;;;66.50;48.75;;;;;10.76;48.75;102329.47;5051271;28;45923;-78
2022/03/23 02:19:23;;;;;;;;;65.50;47.25;;;;;10.74;48.76;102322.41;5054381;28;45444;-76
2022/03/23 02:21:52;;;;;;;;;60.25;47.00;;;;;10.72;49.40;102327.25;5052837;28;45816;-76
2022/03/23 02:24:32;;;;;;;;;62.75;47.50;;;;;10.69;48.65;102324.81;5054642;28;45853;-72
2022/03/23 02:27:04;;;;;;;;;63.00;46.50;;;;;10.66;48.90;102317.78;5055520;28;46708;-74
2022/03/23 02:29:32;;;;;;;;;59.75;45.75;;;;;10.64;48.88;102317.09;5067996;27;45748;-78
2022/03/23 02:32:01;;;;;;;;;64.75;48.25;;;;;10.61;49.27;102325.66;5061322;28;45449;-77
2022/03/23 02:34:48;;;;;;;;;62.25;48.50;;;;;10.58;49.06;102318.66;5054773;28;45684;-72
2022/03/23 02:37:14;;;;;;;;;62.75;49.50;;;;;10.58;48.97;102326.00;5052744;28;45730;-72
2022/03/23 02:39:39;;;;;;;;;65.25;49.00;;;;;10.52;49.08;102322.03;5054165;28;45699;-77
2022/03/23 02:42:11;;;;;;;;;61.75;46.75;;;;;10.53;48.65;102328.41;5057058;28;45522;-71
2022/03/23 02:44:36;;;;;;;;;64.00;49.00;;;;;10.48;49.14;102326.19;5057190;28;45457;-76
2022/03/23 02:47:04;;;;;;;;;64.00;48.00;;;;;10.41;48.84;102317.75;5058380;28;45556;-73
2022/03/23 02:49:33;;;;;;;;;63.00;47.00;;;;;10.42;49.23;102324.13;5058987;28;45716;-77
2022/03/23 02:52:04;;;;;;;;;64.50;48.75;;;;;10.41;48.79;102330.63;5060589;28;45837;-78
2022/03/23 03:03:09;;;;;;;;;65.25;48.25;;;;;10.38;48.65;102334.56;5057583;28;45441;-77
2022/03/23 03:05:34;;;;;;;;;56.50;46.25;;;;;10.36;48.90;102339.34;5053383;28;45513;-76
2022/03/23 03:10:43;;;;;;;;;63.00;47.25;;;;;10.34;48.82;102346.88;5055259;28;45799;-72
2022/03/23 03:13:09;;;;;;;;;61.25;45.25;;;;;10.34;48.35;102346.88;5061353;28;44860;-77
2022/03/23 03:15:34;;;;;;;;;58.25;45.25;;;;;10.33;48.82;102349.75;5083475;27;46041;-76
2022/03/23 03:18:03;;;;;;;;;56.00;44.50;;;;;10.31;48.59;102344.44;5075180;27;45559;-73
2022/03/23 03:20:29;;;;;;;;;59.75;45.25;;;;;10.31;48.39;102341.69;5074622;27;45354;-73
2022/03/23 03:22:54;;;;;;;;;64.75;47.50;;;;;10.33;48.70;102347.91;5074245;27;45733;-71
2022/03/23 03:25:23;;;;;;;;;58.75;46.00;;;;;10.29;48.81;102351.13;5074091;28;45396;-78
2022/03/23 03:27:49;;;;;;;;;64.00;47.25;;;;;10.27;48.59;102350.44;5080861;27;45502;-71
2022/03/23 03:30:17;;;;;;;;;58.75;46.25;;;;;10.25;48.77;102356.97;5077712;27;45700;-78
2022/03/23 03:32:43;;;;;;;;;56.50;42.50;;;;;10.23;48.68;102360.88;5077042;28;45772;-72
2022/03/23 03:35:09;;;;;;;;;58.00;45.00;;;;;10.19;48.75;102356.75;5075224;27;45987;-72
2022/03/23 03:37:35;;;;;;;;;58.75;45.25;;;;;10.22;48.66;102370.13;5079200;27;45545;-77
2022/03/23 03:40:04;;;;;;;;;60.25;44.25;;;;;10.21;47.71;102369.28;5078372;27;45722;-77
2022/03/23 03:42:29;;;;;;;;;52.00;41.75;;;;;10.19;47.44;102367.72;5077685;28;45714;-75
2022/03/23 03:44:55;;;;;;;;;50.25;41.00;;;;;10.23;47.23;102374.59;5077194;27;45499;-77
2022/03/23 03:47:20;;;;;;;;;55.50;42.00;;;;;10.22;46.85;102371.00;5074272;27;45484;-72
2022/03/23 03:49:49;;;;;;;;;51.75;42.50;;;;;10.27;46.19;102369.63;5072025;28;46317;-73
2022/03/23 03:52:15;;;;;;;;;51.50;40.00;;;;;10.31;45.80;102369.13;5066703;28;45732;-73
2022/03/23 03:54:40;;;;;;;;;55.00;41.25;;;;;10.34;45.63;102376.19;5055618;28;45806;-77
2022/03/23 03:57:06;;;;;;;;;49.00;39.50;;;;;10.35;44.94;102378.75;5056115;27;46436;-71
2022/03/23 03:59:31;;;;;;;;;44.50;35.75;;;;;10.40;44.11;102378.25;5051157;27;46406;-74
2022/03/23 04:01:56;;;;;;;;;33.00;31.00;;;;;10.48;42.58;102381.03;5050074;28;45541;-71
2022/03/23 04:04:22;;;;;;;;;21.00;20.00;;;;;10.56;42.18;102381.03;5052029;28;45425;-78
2022/03/23 04:06:47;;;;;;;;;34.75;30.25;;;;;10.65;41.99;102387.41;5051701;28;45344;-73
2022/03/23 04:09:13;;;;;;;;;33.67;30.33;;;;;10.68;41.69;102377.97;5049653;28;45688;-73
2022/03/23 04:11:39;;;;;;;;;34.50;26.75;;;;;10.73;41.57;102381.94;5066029;27;45858;-78
2022/03/23 04:14:05;;;;;;;;;32.67;29.00;;;;;10.76;41.36;102388.97;5061351;28;45422;-76
2022/03/23 04:16:31;;;;;;;;;32.33;30.00;;;;;10.81;40.56;102382.97;5050703;28;45769;-72
2022/03/23 04:18:57;;;;;;;;;32.00;27.00;;;;;10.85;40.43;102387.09;5049931;28;47381;-75
2022/03/23 04:21:22;;;;;;;;;28.67;25.00;;;;;10.88;39.58;102389.50;5045600;28;45931;-77
2022/03/23 04:23:48;;;;;;;;;26.00;22.00;;;;;10.90;39.71;102395.69;5050753;28;45815;-72
2022/03/23 04:26:13;;;;;;;;;26.67;22.33;;;;;10.97;39.49;102396.69;5049680;28;45800;-72
2022/03/23 04:28:41;;;;;;;;;26.00;24.00;;;;;11.03;39.69;102398.78;5042905;28;47094;-78
2022/03/23 04:31:07;;;;;;;;;26.67;25.00;;;;;11.04;39.14;102391.41;5049429;28;45706;-77
2022/03/23 04:33:33;;;;;;;;;29.00;27.33;;;;;11.05;38.76;102396.72;5049993;28;45733;-76
2022/03/23 04:35:58;;;;;;;;;28.67;28.67;;;;;11.10;39.04;102402.53;5042658;28;45825;-73
2022/03/23 04:38:25;;;;;;;;;25.00;22.33;;;;;11.08;38.78;102403.75;5050786;28;45512;-77
2022/03/23 04:40:50;;;;;;;;;25.67;22.67;;;;;11.11;39.09;102393.28;5048939;28;45690;-77
2022/03/23 04:43:16;;;;;;;;;28.00;28.00;;;;;11.15;39.00;102403.91;5049672;28;45520;-72
2022/03/23 04:45:42;;;;;;;;;21.00;20.33;;;;;11.18;38.65;102403.56;5047135;28;45987;-73
2022/03/23 04:48:07;;;;;;;;;31.33;24.67;;;;;11.17;38.68;102407.34;5048761;27;45847;-73
2022/03/23 04:50:33;;;;;;;;;25.00;24.67;;;;;11.16;38.20;102405.63;5048080;28;45935;-73
2022/03/23 04:52:58;;;;;;;;;27.33;25.67;;;;;11.21;39.01;102411.47;5048999;28;45558;-78
2022/03/23 04:55:24;;;;;;;;;27.33;22.00;;;;;11.23;38.94;102417.66;5041987;28;45428;-73
2022/03/23 04:57:49;;;;;;;;;33.00;25.00;;;;;11.22;38.34;102427.75;5044289;28;47150;-73
2022/03/23 05:00:17;;;;;;;;;31.67;25.33;;;;;11.22;38.91;102421.41;5046524;27;45723;-77
2022/03/23 05:02:44;;;;;;;;;28.33;25.00;;;;;11.20;38.57;102429.84;5050712;28;45386;-77
2022/03/23 05:05:14;;;;;;;;;26.33;24.00;;;;;11.14;38.99;102422.28;5040942;28;45517;-77
2022/03/23 05:07:40;;;;;;;;;27.67;26.00;;;;;11.14;39.20;102425.03;5045978;28;46750;-78
2022/03/23 05:10:08;;;;;;;;;33.00;27.00;;;;;11.10;39.59;102426.41;5050114;28;45439;-73
2022/03/23 05:12:35;;;;;;;;;30.00;25.00;;;;;11.06;39.06;102416.78;5043641;28;45843;-73
2022/03/23 05:15:00;;;;;;;;;32.00;28.67;;;;;11.05;39.03;102426.06;5047969;28;45825;-77
2022/03/23 05:17:26;;;;;;;;;39.67;31.33;;;;;11.03;39.36;102420.75;5039128;28;45482;-74
2022/03/23 05:19:51;;;;;;;;;56.75;45.75;;;;;11.01;40.50;102425.53;5035056;28;45727;-78
2022/03/23 05:22:17;;;;;;;;;35.33;29.00;;;;;11.00;39.98;102425.69;5045941;28;45443;-79
2022/03/23 05:24:42;;;;;;;;;30.33;26.33;;;;;10.96;39.67;102419.69;5041897;28;45441;-77
2022/03/23 05:27:08;;;;;;;;;36.00;27.00;;;;;10.98;40.30;102430.50;5039112;27;45853;-78
2022/03/23 05:29:37;;;;;;;;;33.25;29.25;;;;;10.97;39.80;102426.03;5045267;27;45415;-79
2022/03/23 05:32:03;;;;;;;;;31.67;30.67;;;;;10.97;39.53;102426.03;5042505;28;45696;-78
2022/03/23 05:34:28;;;;;;;;;38.00;28.00;;;;;10.95;39.82;102431.69;5047256;28;45995;-79
2022/03/23 05:36:54;;;;;;;;;34.75;27.00;;;;;10.94;40.08;102427.22;5042647;28;45366;-78
2022/03/23 05:39:20;;;;;;;;;36.00;31.00;;;;;10.96;41.06;102436.19;5044727;28;46362;-77
2022/03/23 05:41:45;;;;;;;;;42.75;33.75;;;;;10.95;41.27;102432.56;5047437;28;45485;-77
2022/03/23 05:44:11;;;;;;;;;46.00;36.00;;;;;10.97;42.41;102437.03;5043777;28;45832;-79
2022/03/23 05:46:36;;;;;;;;;47.75;34.50;;;;;10.98;42.62;102444.25;5052189;28;46839;-74
2022/03/23 05:49:03;;;;;;;;;49.50;36.75;;;;;10.96;41.77;102438.91;5053987;28;45404;-73
2022/03/23 05:51:28;;;;;;;;;46.75;37.50;;;;;10.98;42.02;102447.84;5051609;28;45405;-74
2022/03/23 05:53:59;;;;;;;;;49.00;37.50;;;;;10.99;42.26;102435.84;5047369;28;45633;-78
2022/03/23 05:56:25;;;;;;;;;43.25;34.75;;;;;11.08;41.56;102439.44;5050495;28;46876;-73
2022/03/23 05:58:50;;;;;;;;;50.50;38.75;;;;;11.24;41.97;102444.06;5042129;28;45838;-72
2022/03/23 06:01:16;;;;;;;;;50.75;39.75;;;;;11.40;42.11;102438.56;5040671;28;45980;-73
2022/03/23 06:03:42;;;;;;;;;49.50;37.25;;;;;11.64;41.23;102431.34;5054758;28;45563;-74
2022/03/23 06:06:09;;;;;;;;;35.25;32.00;;;;;11.92;40.18;102441.94;5054411;28;46852;-75
2022/03/23 06:08:34;;;;;;;;;67.00;44.50;;;;;12.22;41.62;102434.81;5043160;28;45414;-73
2022/03/23 06:11:00;;;;;;;;;70.00;47.75;;;;;12.41;42.02;102439.03;5032032;28;46133;-73
2022/03/23 06:13:25;;;;;;;;;58.75;43.50;;;;;12.45;40.95;102440.38;5047037;27;45916;-76
2022/03/23 06:15:51;;;;;;;;;49.25;38.50;;;;;12.44;40.90;102441.44;5051288;28;46444;-76
2022/03/23 06:18:16;;;;;;;;;66.00;46.50;;;;;12.41;40.85;102441.78;5050824;27;45682;-72
2022/03/23 06:20:41;;;;;;;;;67.50;48.75;;;;;12.39;41.18;102445.75;5052712;28;45928;-75
2022/03/23 06:23:07;;;;;;;;;57.25;43.75;;;;;12.34;40.67;102438.88;5050139;28;45481;-73
2022/03/23 06:25:32;;;;;;;;;65.50;46.25;;;;;12.36;41.00;102452.44;5051893;27;46707;-76
2022/03/23 06:27:58;;;;;;;;;64.25;46.00;;;;;12.35;41.01;102451.59;5052930;28;45778;-75
2022/03/23 06:30:23;;;;;;;;;53.50;40.50;;;;;12.34;40.89;102451.78;5051424;28;45713;-72
2022/03/23 06:32:49;;;;;;;;;59.75;44.00;;;;;12.35;41.07;102456.25;5042732;28;45800;-71
2022/03/23 06:35:16;;;;;;;;;58.75;44.25;;;;;12.40;40.74;102453.81;5046841;28;45899;-70
2022/03/23 06:37:42;;;;;;;;;48.25;36.75;;;;;12.41;39.46;102449.16;5053184;28;45787;-81
2022/03/23 06:40:08;;;;;;;;;56.50;42.50;;;;;12.69;38.64;102455.03;5065142;27;45476;-73
2022/03/23 06:42:34;;;;;;;;;57.25;43.25;;;;;13.13;38.22;102468.19;5052055;28;47272;-73
2022/03/23 06:45:01;;;;;;;;;51.00;39.00;;;;;13.86;37.10;102465.84;5049783;27;45818;-72
2022/03/23 06:47:26;;;;;;;;;46.50;37.50;;;;;14.57;34.99;102468.09;5045008;27;46203;-72
2022/03/23 06:49:52;;;;;;;;;35.00;32.00;;;;;15.34;34.41;102471.28;5045260;28;45421;-73
2022/03/23 06:52:17;;;;;;;;;53.33;38.67;;;;;16.10;33.43;102470.63;5052749;27;45559;-79
2022/03/23 06:54:45;;;;;;;;;50.33;38.33;;;;;16.82;32.04;102473.94;5050144;27;46006;-74
2022/03/23 06:57:11;;;;;;;;;47.67;35.67;;;;;17.43;31.03;102474.97;5049833;27;45704;-71
2022/03/23 06:59:37;;;;;;;;;38.67;35.00;;;;;17.99;31.27;102482.88;5054867;28;45557;-77
2022/03/23 07:02:02;;;;;;;;;37.67;34.00;;;;;18.47;30.05;102478.88;5063172;27;45966;-77
2022/03/23 07:04:28;;;;;;;;;35.67;26.00;;;;;18.93;29.28;102478.91;5046718;27;46198;-80
2022/03/23 07:06:53;;;;;;;;;49.67;37.67;;;;;19.31;28.91;102487.25;5047776;27;46333;-72
2022/03/23 07:09:38;;;;;;;;;50.33;37.00;;;;;19.44;28.27;102488.22;5051194;28;45520;-78
2022/03/23 07:12:07;;;;;;;;;46.33;37.00;;;;;19.32;28.48;102490.84;5052474;27;45803;-72
2022/03/23 07:14:33;;;;;;;;;44.00;37.33;;;;;19.68;28.19;102500.44;5042464;28;45711;-72
2022/03/23 07:16:59;;;;;;;;;39.33;34.67;;;;;20.15;27.89;102498.09;5047612;28;45559;-78
2022/03/23 07:19:28;;;;;;;;;55.67;39.33;;;;;20.64;27.22;102487.88;5044370;27;45851;-74
2022/03/23 07:21:54;;;;;;;;;45.00;36.33;;;;;21.14;26.83;102486.78;5045548;28;45688;-73
2022/03/23 07:24:20;;;;;;;;;51.67;39.33;;;;;21.68;25.66;102499.91;5046459;27;45705;-76
2022/03/23 07:26:46;;;;;;;;;42.67;36.33;;;;;22.18;25.22;102501.38;5043427;28;45789;-74
2022/03/23 07:29:13;;;;;;;;;38.00;33.33;;;;;22.40;25.12;102498.84;5035818;27;45485;-74
2022/03/23 07:31:39;;;;;;;;;44.00;36.33;;;;;21.94;25.23;102497.75;5042494;28;45501;-77
2022/03/23 07:34:05;;;;;;;;;48.33;37.67;;;;;21.34;25.81;102507.94;5043340;27;45551;-72
2022/03/23 07:36:30;;;;;;;;;43.00;30.00;;;;;20.70;26.28;102507.56;5035911;28;45809;-74
2022/03/23 07:38:56;;;;;;;;;44.00;38.00;;;;;20.11;27.19;102510.78;5036476;28;46057;-76
2022/03/23 07:41:24;;;;;;;;;50.67;40.00;;;;;19.57;27.87;102514.00;5046901;28;45572;-78
2022/03/23 07:43:49;;;;;;;;;47.00;36.00;;;;;19.10;28.32;102512.59;5049358;27;45871;-78
2022/03/23 07:46:16;;;;;;;;;46.67;38.67;;;;;18.66;29.22;102510.44;5052531;28;46060;-78
2022/03/23 07:48:41;;;;;;;;;47.00;38.67;;;;;18.27;29.64;102514.19;5050255;28;45630;-79
2022/03/23 07:51:07;;;;;;;;;42.67;36.33;;;;;17.91;29.80;102513.59;5048575;27;45758;-73
2022/03/23 07:53:33;;;;;;;;;45.00;36.33;;;;;17.67;30.04;102514.25;5047013;28;46885;-72
2022/03/23 07:55:58;;;;;;;;;46.67;38.67;;;;;17.38;31.39;102508.88;5048206;28;46839;-73
2022/03/23 07:58:25;;;;;;;;;53.33;40.67;;;;;17.09;31.09;102508.16;5052843;28;45513;-78
2022/03/23 08:00:51;;;;;;;;;49.00;37.00;;;;;17.01;31.66;102518.59;5049985;27;45945;-79
2022/03/23 08:03:16;;;;;;;;;50.67;37.33;;;;;16.91;31.75;102513.44;5046328;28;45500;-74
2022/03/23 08:05:45;;;;;;;;;51.75;39.00;;;;;16.87;31.40;102514.91;5049483;28;46015;-73
2022/03/23 08:08:13;;;;;;;;;50.00;40.00;;;;;16.67;32.07;102510.13;5051562;28;45389;-78
2022/03/23 08:10:43;;;;;;;;;51.50;36.00;;;;;16.63;31.91;102519.06;5049812;28;46872;-79
2022/03/23 08:13:12;;;;;;;;;43.00;34.75;;;;;16.53;31.86;102522.22;5054031;28;45949;-79
2022/03/23 08:15:39;;;;;;;;;45.67;37.00;;;;;16.44;32.12;102532.59;5060938;28;45760;-77
2022/03/23 08:18:05;;;;;;;;;45.25;36.50;;;;;16.36;32.86;102536.41;5047349;28;45985;-78
2022/03/23 08:20:38;;;;;;;;;49.00;38.33;;;;;16.28;32.48;102536.53;5046463;27;45832;-78
2022/03/23 08:23:08;;;;;;;;;45.67;37.00;;;;;16.30;32.24;102534.44;5048111;28;45491;-77
2022/03/23 08:25:38;;;;;;;;;41.00;34.33;;;;;16.35;32.34;102534.69;5053740;28;45640;-74
2022/03/23 08:28:05;;;;;;;;;46.00;37.00;;;;;16.39;31.63;102536.00;5062786;27;45903;-72
2022/03/23 08:30:31;;;;;;;;;38.67;33.67;;;;;16.38;31.65;102536.19;5048115;28;45525;-73
2022/03/23 08:32:57;;;;;;;;;36.33;33.00;;;;;16.40;30.97;102545.97;5047549;28;46306;-78
2022/03/23 08:35:24;;;;;;;;;49.67;37.67;;;;;16.37;31.21;102540.00;5052344;28;45717;-76
2022/03/23 08:37:50;;;;;;;;;37.00;32.33;;;;;16.34;31.07;102532.97;5053184;28;45910;-76
2022/03/23 08:40:16;;;;;;;;;32.33;30.67;;;;;16.40;30.36;102536.84;5053764;28;45883;-73
2022/03/23 08:42:42;;;;;;;;;34.33;30.67;;;;;16.36;29.76;102536.41;5053326;28;45754;-73
2022/03/23 08:45:08;;;;;;;;;55.75;43.00;;;;;16.46;29.74;102538.78;5051863;28;45920;-74
2022/03/23 08:47:34;;;;;;;;;29.33;28.67;;;;;16.53;29.34;102544.38;5052318;28;45867;-77
2022/03/23 08:50:00;;;;;;;;;34.67;29.00;;;;;16.53;29.47;102541.59;5052723;28;45944;-77
2022/03/23 08:52:25;;;;;;;;;31.67;28.67;;;;;16.60;29.01;102548.00;5054150;28;46718;-76
2022/03/23 08:54:51;;;;;;;;;33.67;28.00;;;;;16.67;29.80;102535.06;5052182;27;45642;-72
2022/03/23 08:57:17;;;;;;;;;30.00;29.00;;;;;16.77;29.00;102537.47;5054954;28;45735;-76
2022/03/23 08:59:51;;;;;;;;;29.33;25.00;;;;;16.90;28.66;102537.53;5058870;28;45938;-78
2022/03/23 09:02:17;;;;;;;;;29.00;26.33;;;;;16.96;27.26;102533.09;5054652;28;46302;-77
2022/03/23 09:04:42;;;;;;;;;30.00;26.67;;;;;17.06;27.91;102536.31;5055068;28;45477;-78
2022/03/23 09:07:08;;;;;;;;;32.33;28.00;;;;;17.15;26.52;102536.97;5054385;28;45564;-74
2022/03/23 09:09:33;;;;;;;;;25.00;24.00;;;;;17.13;26.89;102532.72;5053476;28;45420;-73
2022/03/23 09:11:59;;;;;;;;;35.00;29.33;;;;;17.14;27.22;102539.94;5053665;28;46923;-72
2022/03/23 09:14:24;;;;;;;;;28.33;28.00;;;;;17.08;27.60;102536.97;5052606;28;45376;-71
2022/03/23 09:16:49;;;;;;;;;30.67;27.67;;;;;17.18;27.80;102535.72;5052393;28;45565;-73
2022/03/23 09:19:20;;;;;;;;;31.67;29.33;;;;;17.27;26.26;102540.00;5051613;28;45982;-72
2022/03/23 09:21:46;;;;;;;;;25.33;23.00;;;;;17.42;26.16;102539.81;5053216;28;46070;-72
2022/03/23 09:24:12;;;;;;;;;21.33;21.33;;;;;17.98;25.83;102522.78;5053119;28;45816;-73
2022/03/23 09:26:39;;;;;;;;;23.67;20.00;;;;;19.36;24.00;102531.06;5054495;28;45878;-77
2022/03/23 09:29:04;;;;;;;;;15.67;12.67;;;;;20.89;22.11;102527.91;5054168;28;45955;-76
2022/03/23 09:31:30;;;;;;;;;21.00;16.00;;;;;22.54;21.01;102527.38;5052025;28;46292;-78
2022/03/23 09:33:55;;;;;;;;;21.33;20.00;;;;;24.01;19.38;102528.75;5052446;28;45853;-77
2022/03/23 09:39:05;;;;;;;;;25.67;22.00;;;;;26.71;17.54;102532.97;5051626;28;45381;-74
2022/03/23 09:41:33;;;;;;;;;27.67;22.33;;;;;28.04;17.05;102531.50;5052874;28;46069;-72
2022/03/23 09:43:58;;;;;;;;;20.67;19.00;;;;;29.39;15.53;102531.53;5052091;28;45497;-79
2022/03/23 09:46:24;;;;;;;;;21.33;19.33;;;;;30.62;14.80;102537.19;5054396;28;45804;-76
2022/03/23 09:48:49;;;;;;;;;20.00;20.00;;;;;31.72;13.78;102527.63;5053082;28;45702;-73
2022/03/23 09:51:17;;;;;;;;;20.67;20.33;;;;;32.44;13.14;102526.34;5053088;28;45970;-73
2022/03/23 09:53:42;;;;;;;;;22.67;21.67;;;;;32.72;12.68;102532.00;5051855;28;45499;-73
2022/03/23 09:56:08;;;;;;;;;20.00;16.00;;;;;33.24;11.79;102529.72;5053076;28;45461;-71
2022/03/23 09:58:34;;;;;;;;;19.33;17.33;;;;;33.75;11.78;102529.63;5069593;27;46450;-77
2022/03/23 10:01:00;;;;;;;;;23.67;20.00;;;;;34.06;11.21;102523.94;5053705;28;46301;-78
2022/03/23 10:03:45;;;;;;;;;21.33;20.33;;;;;34.11;11.73;102531.50;5052196;28;45838;-78
2022/03/23 10:06:42;;;;;;;;;21.33;18.67;;;;;34.34;11.22;102525.75;5054067;28;45795;-77
2022/03/23 10:09:55;;;;;;;;;19.67;18.67;;;;;34.46;11.40;102520.28;5053670;28;45491;-78
2022/03/23 10:12:58;;;;;;;;;18.00;17.67;;;;;34.93;11.13;102528.31;5054399;28;46398;-79
2022/03/23 10:16:02;;;;;;;;;17.67;17.67;;;;;35.37;10.79;102522.66;5039226;28;46679;-73
2022/03/23 10:18:56;;;;;;;;;20.00;20.00;;;;;35.20;10.69;102518.59;5043835;28;45553;-74
2022/03/23 10:21:28;;;;;;;;;18.33;18.33;;;;;35.09;10.82;102525.78;5041478;28;46240;-73
2022/03/23 10:24:13;;;;;;;;;18.33;16.67;;;;;34.81;10.64;102517.56;5047953;28;47087;-78
2022/03/23 10:26:42;;;;;;;;;18.00;18.00;;;;;34.57;10.30;102517.94;5043224;28;45673;-77
2022/03/23 10:29:26;;;;;;;;;14.00;13.00;;;;;34.33;10.81;102524.94;5041771;28;45609;-79
2022/03/23 10:32:02;;;;;;;;;19.00;14.33;;;;;34.15;10.53;102518.28;5046919;28;45837;-78
2022/03/23 10:34:38;;;;;;;;;12.33;12.33;;;;;34.09;10.54;102525.31;5045937;28;45566;-76
2022/03/23 10:37:04;;;;;;;;;15.00;14.00;;;;;33.48;10.36;102514.34;5044269;28;45853;-78
2022/03/23 10:39:30;;;;;;;;;14.33;13.67;;;;;33.01;10.46;102502.38;5041729;28;46066;-78
2022/03/23 10:42:13;;;;;;;;;17.67;16.00;;;;;32.36;10.88;102505.16;5045169;28;45633;-81
2022/03/23 10:44:40;;;;;;;;;17.67;15.33;;;;;31.94;11.12;102500.59;5043576;28;45488;-80
2022/03/23 10:47:05;;;;;;;;;18.33;18.33;;;;;31.29;11.39;102502.25;5037218;28;45319;-72
2022/03/23 10:49:35;;;;;;;;;16.67;15.67;;;;;30.71;12.14;102495.69;5049127;28;45404;-77
2022/03/23 10:52:16;;;;;;;;;22.67;18.67;;;;;30.34;12.66;102502.94;5043699;28;46307;-77
2022/03/23 10:54:53;;;;;;;;;20.33;18.33;;;;;29.69;12.81;102494.84;5053607;28;47884;-85
2022/03/23 10:57:19;;;;;;;;;18.67;18.33;;;;;28.94;12.88;102495.91;5047759;28;45535;-83
2022/03/23 11:00:04;;;;;;;;;20.67;17.67;;;;;28.15;13.56;102499.31;5044719;28;45703;-86
2022/03/23 11:02:45;;;;;;;;;19.67;17.67;;;;;27.51;14.33;102498.78;5042816;27;45529;-80
2022/03/23 11:05:38;;;;;;;;;18.00;16.67;;;;;26.99;15.01;102480.09;5072600;28;47087;-85
2022/03/23 11:08:31;;;;;;;;;17.33;16.00;;;;;26.76;15.17;102488.78;5053024;28;45790;-86
2022/03/23 11:16:42;;;;;;;;;21.67;19.00;;;;;25.52;15.48;102484.34;5044903;28;45980;-79
2022/03/23 11:19:10;;;;;;;;;22.67;18.33;;;;;25.15;16.07;102485.09;5044006;27;45804;-74
2022/03/23 11:22:08;;;;;;;;;17.00;15.00;;;;;24.87;16.29;102489.00;5038780;28;45829;-74
2022/03/23 11:24:46;;;;;;;;;24.67;21.67;;;;;24.60;15.79;102480.56;5056246;28;45382;-73
2022/03/23 11:27:19;;;;;;;;;19.67;19.33;;;;;24.40;16.13;102481.09;5048055;28;46198;-74
2022/03/23 11:29:47;;;;;;;;;20.67;19.00;;;;;24.38;16.82;102467.34;5044393;28;45886;-73
2022/03/23 11:32:27;;;;;;;;;22.00;19.67;;;;;24.24;15.83;102463.22;5044689;28;45939;-74
2022/03/23 11:34:56;;;;;;;;;25.00;19.67;;;;;24.11;16.18;102459.69;5040949;27;45815;-74